createdAt,value
2019-04-29T00:02:22.877Z,7.80
2019-04-29T00:04:52.958Z,7.80
2019-04-29T00:07:23.127Z,7.70
2019-04-29T00:09:53.050Z,7.70
2019-04-29T00:12:23.506Z,7.60
2019-04-29T00:15:07.101Z,7.60
2019-04-29T00:17:52.670Z,7.60
2019-04-29T00:20:30.805Z,7.50
2019-04-29T00:23:01.779Z,7.50
2019-04-29T00:25:32.178Z,7.50
2019-04-29T00:28:02.458Z,7.50
2019-04-29T00:30:32.395Z,7.50
2019-04-29T00:33:02.932Z,7.40
2019-04-29T00:35:33.162Z,7.40
2019-04-29T00:38:21.998Z,7.30
2019-04-29T00:41:11.465Z,7.30
2019-04-29T00:43:51.828Z,7.20
2019-04-29T00:46:22.220Z,7.10
2019-04-29T00:48:52.393Z,7.00
2019-04-29T00:51:23.964Z,7.00
2019-04-29T00:53:57.904Z,6.90
2019-04-29T00:56:28.074Z,6.90
2019-04-29T00:58:57.826Z,6.80
2019-04-29T01:01:27.928Z,6.80
2019-04-29T01:04:03.543Z,6.80
2019-04-29T01:06:39.208Z,6.80
2019-04-29T01:09:16.510Z,6.80
2019-04-29T01:11:52.264Z,6.80
2019-04-29T01:14:30.338Z,6.70
2019-04-29T01:17:07.853Z,6.70
2019-04-29T01:19:42.854Z,6.60
2019-04-29T01:22:19.110Z,6.60
2019-04-29T01:24:54.156Z,6.60
2019-04-29T01:27:34.473Z,6.50
2019-04-29T01:30:09.512Z,6.50
2019-04-29T01:32:50.878Z,6.50
2019-04-29T01:35:26.832Z,6.50
2019-04-29T01:38:03.410Z,6.50
2019-04-29T01:41:03.662Z,6.50
2019-04-29T01:44:09.523Z,6.50
2019-04-29T01:46:46.421Z,6.50
2019-04-29T01:49:20.579Z,6.50
2019-04-29T01:51:58.170Z,6.40
2019-04-29T01:54:33.799Z,6.40
2019-04-29T01:57:12.884Z,6.50
2019-04-29T01:59:52.323Z,6.40
2019-04-29T02:02:25.098Z,6.40
2019-04-29T02:04:57.808Z,6.40
2019-04-29T02:07:31.302Z,6.40
2019-04-29T02:10:13.041Z,6.40
2019-04-29T02:12:45.789Z,6.40
2019-04-29T02:15:18.787Z,6.40
2019-04-29T02:17:50.862Z,6.40
2019-04-29T02:20:23.256Z,6.40
2019-04-29T02:23:12.470Z,6.40
2019-04-29T02:25:46.797Z,6.30
2019-04-29T02:28:19.867Z,6.30
2019-04-29T02:30:52.719Z,6.40
2019-04-29T02:33:25.396Z,6.40
2019-04-29T02:35:59.278Z,6.40
2019-04-29T02:38:40.605Z,6.30
2019-04-29T02:41:30.981Z,6.30
2019-04-29T02:44:05.009Z,6.30
2019-04-29T02:46:37.871Z,6.30
2019-04-29T02:49:10.230Z,6.30
2019-04-29T02:51:50.499Z,6.20
2019-04-29T02:54:24.037Z,6.30
2019-04-29T02:57:06.424Z,6.30
2019-04-29T02:59:43.257Z,6.30
2019-04-29T03:02:34.943Z,6.30
2019-04-29T03:05:19.253Z,6.30
2019-04-29T03:07:52.163Z,6.30
2019-04-29T03:10:25.330Z,6.30
2019-04-29T03:12:58.336Z,6.20
2019-04-29T03:15:35.677Z,6.20
2019-04-29T03:18:06.030Z,6.30
2019-04-29T03:21:10.701Z,6.30
2019-04-29T03:23:40.888Z,6.30
2019-04-29T03:26:11.119Z,6.30
2019-04-29T03:28:41.239Z,6.30
2019-04-29T03:31:11.360Z,6.30
2019-04-29T03:33:41.245Z,6.30
2019-04-29T03:36:11.368Z,6.30
2019-04-29T03:38:41.256Z,6.30
2019-04-29T03:41:11.573Z,6.30
2019-04-29T03:43:41.750Z,6.40
2019-04-29T03:46:12.102Z,6.40
2019-04-29T03:48:41.897Z,6.30
2019-04-29T03:51:12.091Z,6.30
2019-04-29T03:53:42.069Z,6.20
2019-04-29T03:56:11.902Z,6.20
2019-04-29T03:58:41.873Z,6.20
2019-04-29T04:01:24.535Z,6.10
2019-04-29T04:04:02.151Z,6.10
2019-04-29T04:06:49.571Z,6.10
2019-04-29T04:09:31.416Z,6.10
2019-04-29T04:12:01.228Z,6.10
2019-04-29T04:14:31.091Z,6.20
2019-04-29T04:17:11.405Z,6.20
2019-04-29T04:19:41.916Z,6.20
2019-04-29T04:22:11.785Z,6.30
2019-04-29T04:24:41.633Z,6.30
2019-04-29T04:27:11.501Z,6.40
2019-04-29T04:29:41.650Z,6.40
2019-04-29T04:32:12.069Z,6.40
2019-04-29T04:34:42.287Z,6.40
2019-04-29T04:37:12.527Z,6.40
2019-04-29T04:39:44.019Z,6.50
2019-04-29T04:42:14.286Z,6.50
2019-04-29T04:44:50.354Z,6.60
2019-04-29T04:47:21.119Z,6.60
2019-04-29T04:49:51.547Z,6.70
2019-04-29T04:52:21.507Z,6.60
2019-04-29T04:54:53.172Z,6.60
2019-04-29T04:57:23.017Z,6.70
2019-04-29T04:59:52.829Z,6.70
2019-04-29T05:02:24.995Z,6.80
2019-04-29T05:04:55.534Z,6.80
2019-04-29T05:07:25.400Z,6.90
2019-04-29T05:09:55.369Z,6.90
2019-04-29T05:12:25.366Z,6.90
2019-04-29T05:14:55.890Z,7.00
2019-04-29T05:17:28.160Z,7.00
2019-04-29T05:19:58.044Z,6.90
2019-04-29T05:22:28.433Z,6.80
2019-04-29T05:24:58.642Z,6.90
2019-04-29T05:27:29.005Z,7.00
2019-04-29T05:29:58.970Z,7.00
2019-04-29T05:32:29.219Z,6.90
2019-04-29T05:35:01.767Z,7.00
2019-04-29T05:37:41.377Z,7.10
2019-04-29T05:40:14.484Z,7.20
2019-04-29T05:42:48.289Z,7.30
2019-04-29T05:45:25.414Z,7.30
2019-04-29T05:48:06.172Z,7.30
2019-04-29T05:50:43.448Z,7.40
2019-04-29T05:53:24.655Z,7.50
2019-04-29T05:55:54.490Z,7.30
2019-04-29T05:58:24.502Z,7.30
2019-04-29T06:01:13.825Z,7.40
2019-04-29T06:03:45.746Z,7.20
2019-04-29T06:06:15.814Z,7.20
2019-04-29T06:08:46.040Z,7.20
2019-04-29T06:11:15.912Z,7.20
2019-04-29T06:13:46.162Z,7.30
2019-04-29T06:16:20.853Z,7.40
2019-04-29T06:18:47.630Z,7.50
2019-04-29T06:21:17.587Z,7.60
2019-04-29T06:23:47.756Z,7.70
2019-04-29T06:26:17.607Z,7.70
2019-04-29T06:28:48.015Z,7.70
2019-04-29T06:31:17.979Z,7.60
2019-04-29T06:33:48.185Z,7.70
2019-04-29T06:36:18.022Z,7.70
2019-04-29T06:38:49.572Z,7.70
2019-04-29T06:41:19.464Z,7.80
2019-04-29T06:43:52.401Z,7.90
2019-04-29T06:46:21.425Z,8.10
2019-04-29T06:48:52.737Z,8.10
2019-04-29T06:51:22.710Z,8.10
2019-04-29T06:53:53.326Z,8.20
2019-04-29T06:56:23.387Z,8.30
2019-04-29T06:58:53.429Z,8.50
2019-04-29T07:01:23.273Z,8.70
2019-04-29T07:03:55.829Z,8.40
2019-04-29T07:06:25.079Z,8.30
2019-04-29T07:08:54.835Z,8.40
2019-04-29T07:11:25.499Z,8.50
2019-04-29T07:13:57.563Z,8.70
2019-04-29T07:16:31.781Z,8.80
2019-04-29T07:18:59.108Z,8.60
2019-04-29T07:21:33.239Z,8.60
2019-04-29T07:24:03.595Z,8.60
2019-04-29T07:26:33.451Z,8.60
2019-04-29T07:29:03.807Z,8.70
2019-04-29T07:31:35.270Z,9.00
2019-04-29T07:34:08.314Z,9.20
2019-04-29T07:36:37.792Z,9.10
2019-04-29T07:39:08.661Z,9.00
2019-04-29T07:41:41.952Z,9.10
2019-04-29T07:44:13.837Z,9.40
2019-04-29T07:46:56.880Z,9.40
2019-04-29T07:49:23.847Z,9.40
2019-04-29T07:51:53.779Z,9.60
2019-04-29T07:54:23.931Z,9.50
2019-04-29T07:56:54.445Z,9.50
2019-04-29T07:59:24.669Z,9.70
2019-04-29T08:01:55.585Z,9.50
2019-04-29T08:04:27.064Z,9.40
2019-04-29T08:06:56.955Z,9.70
2019-04-29T08:09:26.752Z,10.10
2019-04-29T08:11:56.978Z,10.40
2019-04-29T08:14:27.377Z,10.50
2019-04-29T08:16:57.785Z,10.50
2019-04-29T08:19:29.592Z,10.90
2019-04-29T08:21:59.295Z,11.10
2019-04-29T08:24:29.150Z,11.10
2019-04-29T08:26:59.791Z,11.10
2019-04-29T08:29:30.790Z,10.60
2019-04-29T08:32:02.485Z,10.30
2019-04-29T08:34:32.872Z,10.30
2019-04-29T08:37:02.613Z,10.10
2019-04-29T08:39:32.404Z,10.30
2019-04-29T08:42:08.855Z,10.40
2019-04-29T08:44:54.649Z,10.50
2019-04-29T08:47:31.615Z,10.50
2019-04-29T08:50:00.469Z,10.40
2019-04-29T08:52:30.747Z,10.60
2019-04-29T08:55:00.692Z,10.60
2019-04-29T08:57:31.713Z,10.80
2019-04-29T09:00:02.987Z,10.80
2019-04-29T09:02:35.434Z,10.70
2019-04-29T09:05:06.859Z,10.80
2019-04-29T09:07:39.602Z,11.30
2019-04-29T09:10:09.429Z,11.40
2019-04-29T09:12:39.227Z,11.50
2019-04-29T09:15:12.145Z,11.10
2019-04-29T09:17:42.074Z,11.00
2019-04-29T09:20:12.867Z,11.00
2019-04-29T09:22:47.443Z,11.40
2019-04-29T09:25:28.510Z,11.60
2019-04-29T09:27:59.974Z,11.70
2019-04-29T09:30:30.342Z,12.00
2019-04-29T09:33:00.203Z,12.30
2019-04-29T09:35:33.793Z,12.50
2019-04-29T09:38:01.843Z,12.20
2019-04-29T09:40:34.222Z,11.80
2019-04-29T09:43:25.866Z,11.40
2019-04-29T09:46:18.650Z,11.50
2019-04-29T09:48:49.127Z,11.70
2019-04-29T09:51:22.881Z,12.10
2019-04-29T09:53:50.843Z,12.30
2019-04-29T09:56:21.014Z,12.40
2019-04-29T09:58:53.847Z,12.50
2019-04-29T10:01:41.650Z,12.20
2019-04-29T10:04:28.932Z,12.30
2019-04-29T10:06:59.256Z,12.30
2019-04-29T10:09:30.217Z,12.40
2019-04-29T10:12:00.328Z,11.90
2019-04-29T10:14:30.294Z,11.60
2019-04-29T10:17:16.705Z,11.60
2019-04-29T10:20:09.658Z,11.70
2019-04-29T10:22:39.719Z,11.40
2019-04-29T10:25:10.062Z,11.40
2019-04-29T10:27:40.975Z,11.30
2019-04-29T10:30:10.759Z,11.60
2019-04-29T10:32:42.387Z,11.60
2019-04-29T10:35:13.706Z,11.40
2019-04-29T10:37:43.723Z,11.40
2019-04-29T10:40:24.447Z,11.30
2019-04-29T10:43:17.218Z,11.50
2019-04-29T10:46:08.451Z,11.90
2019-04-29T10:48:44.522Z,11.90
2019-04-29T10:51:16.379Z,12.40
2019-04-29T10:53:46.593Z,12.40
2019-04-29T10:56:18.317Z,12.30
2019-04-29T10:58:48.465Z,12.20
2019-04-29T11:02:19.194Z,11.80
2019-04-29T11:04:52.228Z,11.90
2019-04-29T11:07:30.709Z,12.10
2019-04-29T11:10:09.051Z,12.00
2019-04-29T11:12:40.170Z,11.80
2019-04-29T11:15:14.058Z,12.00
2019-04-29T11:17:44.674Z,11.50
2019-04-29T11:20:15.799Z,11.40
2019-04-29T11:22:51.513Z,11.10
2019-04-29T11:25:51.159Z,11.00
2019-04-29T11:28:18.777Z,10.80
2019-04-29T11:30:49.847Z,10.50
2019-04-29T11:33:40.212Z,10.40
2019-04-29T11:36:13.397Z,10.50
2019-04-29T11:38:44.759Z,10.60
2019-04-29T11:41:19.879Z,10.60
2019-04-29T11:43:50.873Z,10.60
2019-04-29T11:46:21.065Z,10.40
2019-04-29T11:48:52.414Z,10.50
2019-04-29T11:51:41.360Z,10.80
2019-04-29T11:54:08.357Z,10.90
2019-04-29T11:56:39.727Z,11.00
2019-04-29T11:59:42.320Z,11.10
2019-04-29T12:02:44.576Z,10.70
2019-04-29T12:05:23.163Z,11.00
2019-04-29T12:07:53.459Z,10.80
2019-04-29T12:10:24.901Z,10.70
2019-04-29T12:12:54.999Z,10.50
2019-04-29T12:15:38.633Z,10.40
2019-04-29T12:18:27.487Z,10.30
2019-04-29T12:21:12.979Z,10.40
2019-04-29T12:23:47.657Z,10.00
2019-04-29T12:26:18.131Z,9.60
2019-04-29T12:28:48.112Z,9.20
2019-04-29T12:31:40.667Z,8.80
2019-04-29T12:34:35.403Z,8.60
2019-04-29T12:37:11.481Z,8.50
2019-04-29T12:40:16.036Z,8.60
2019-04-29T12:43:04.748Z,8.80
2019-04-29T12:45:45.225Z,8.70
2019-04-29T12:48:24.566Z,8.80
2019-04-29T12:50:47.606Z,8.90
2019-04-29T12:53:17.926Z,9.00
2019-04-29T12:55:53.390Z,9.20
2019-04-29T12:58:24.344Z,9.10
2019-04-29T13:00:59.917Z,9.20
2019-04-29T13:03:42.337Z,9.10
2019-04-29T13:06:23.966Z,9.00
2019-04-29T13:08:57.348Z,8.90
2019-04-29T13:11:37.418Z,9.00
2019-04-29T13:14:01.912Z,9.10
2019-04-29T13:16:59.175Z,9.10
2019-04-29T13:19:38.169Z,9.30
2019-04-29T13:22:10.594Z,9.10
2019-04-29T13:24:42.675Z,9.00
2019-04-29T13:27:16.388Z,9.00
2019-04-29T13:29:43.474Z,8.80
2019-04-29T13:32:13.616Z,8.90
2019-04-29T13:34:45.742Z,8.90
2019-04-29T13:37:19.050Z,8.80
2019-04-29T13:39:47.709Z,8.70
2019-04-29T13:42:17.659Z,8.50
2019-04-29T13:45:05.172Z,8.50
2019-04-29T13:47:50.226Z,8.60
2019-04-29T13:50:38.260Z,8.60
2019-04-29T13:52:54.614Z,8.60
2019-04-29T13:55:47.237Z,8.50
2019-04-29T13:57:59.626Z,8.40
2019-04-29T14:00:38.876Z,8.40
2019-04-29T14:03:14.572Z,8.40
2019-04-29T14:05:45.362Z,8.60
2019-04-29T14:08:15.283Z,8.70
2019-04-29T14:10:46.814Z,8.80
2019-04-29T14:13:20.828Z,8.70
2019-04-29T14:15:49.120Z,8.60
2019-04-29T14:18:19.256Z,8.70
2019-04-29T14:20:51.770Z,8.50
2019-04-29T14:23:20.690Z,8.30
2019-04-29T14:25:50.626Z,8.30
2019-04-29T14:28:36.374Z,8.30
2019-04-29T14:31:18.558Z,8.30
2019-04-29T14:34:05.004Z,8.40
2019-04-29T14:36:37.841Z,8.50
2019-04-29T14:39:18.943Z,8.60
2019-04-29T14:41:58.397Z,8.60
2019-04-29T14:44:52.666Z,8.50
2019-04-29T14:47:48.934Z,8.50
2019-04-29T14:50:38.172Z,8.40
2019-04-29T14:53:12.247Z,8.20
2019-04-29T14:55:45.916Z,8.20
2019-04-29T14:58:18.199Z,8.20
2019-04-29T15:01:16.501Z,8.20
2019-04-29T15:04:17.971Z,8.20
2019-04-29T15:06:52.932Z,8.30
2019-04-29T15:09:45.879Z,8.40
2019-04-29T15:12:24.176Z,8.40
2019-04-29T15:15:18.988Z,8.40
2019-04-29T15:18:00.982Z,8.40
2019-04-29T15:20:56.289Z,8.40
2019-04-29T15:23:28.794Z,8.30
2019-04-29T15:26:08.202Z,8.30
2019-04-29T15:28:54.597Z,8.30
2019-04-29T15:31:25.614Z,8.20
2019-04-29T15:33:57.588Z,8.20
2019-04-29T15:36:34.868Z,8.20
2019-04-29T15:39:13.039Z,8.20
2019-04-29T15:41:50.413Z,8.20
2019-04-29T15:44:23.003Z,8.20
2019-04-29T15:46:59.272Z,8.10
2019-04-29T15:49:38.260Z,8.10
2019-04-29T15:52:21.133Z,8.20
2019-04-29T15:54:58.755Z,8.20
2019-04-29T15:57:32.631Z,8.30
2019-04-29T16:00:21.200Z,8.30
2019-04-29T16:02:50.183Z,8.30
2019-04-29T16:05:54.045Z,8.30
2019-04-29T16:08:29.570Z,8.30
2019-04-29T16:11:20.129Z,8.30
2019-04-29T16:14:08.367Z,8.20
2019-04-29T16:16:23.552Z,8.10
2019-04-29T16:18:53.762Z,8.10
2019-04-29T16:21:23.756Z,8.10
2019-04-29T16:23:57.571Z,8.10
2019-04-29T16:26:30.142Z,8.10
2019-04-29T16:28:57.898Z,8.10
2019-04-29T16:31:27.755Z,8.10
2019-04-29T16:33:58.042Z,8.10
2019-04-29T16:36:28.215Z,8.20
2019-04-29T16:38:58.516Z,8.20
2019-04-29T16:42:02.838Z,8.20
2019-04-29T16:44:36.243Z,8.20
2019-04-29T16:47:07.371Z,8.20
2019-04-29T16:49:38.835Z,8.20
2019-04-29T16:52:08.850Z,8.20
2019-04-29T16:54:39.084Z,8.10
2019-04-29T16:57:09.395Z,8.00
2019-04-29T16:59:39.383Z,8.00
2019-04-29T17:02:09.721Z,7.90
2019-04-29T17:04:40.241Z,7.80
2019-04-29T17:07:29.381Z,7.80
2019-04-29T17:10:18.594Z,7.80
2019-04-29T17:12:52.347Z,7.80
2019-04-29T17:15:25.386Z,7.80
2019-04-29T17:17:55.601Z,7.80
2019-04-29T17:20:30.222Z,7.80
2019-04-29T17:23:00.452Z,7.80
2019-04-29T17:25:30.241Z,7.80
2019-04-29T17:28:24.259Z,7.70
2019-04-29T17:31:11.657Z,7.70
2019-04-29T17:33:49.864Z,7.70
2019-04-29T17:36:23.615Z,7.70
2019-04-29T17:38:50.755Z,7.70
2019-04-29T17:41:20.956Z,7.80
2019-04-29T17:44:09.121Z,7.80
2019-04-29T17:47:11.486Z,7.80
2019-04-29T17:49:48.221Z,7.80
2019-04-29T17:52:25.968Z,7.80
2019-04-29T17:55:00.104Z,7.80
2019-04-29T17:57:37.926Z,7.80
2019-04-29T18:00:19.449Z,7.80
2019-04-29T18:03:15.278Z,7.80
2019-04-29T18:05:55.293Z,7.80
2019-04-29T18:08:41.611Z,7.80
2019-04-29T18:11:11.668Z,7.80
2019-04-29T18:13:41.721Z,7.80
2019-04-29T18:16:19.131Z,7.80
2019-04-29T18:19:05.541Z,7.80
2019-04-29T18:21:54.065Z,7.80
2019-04-29T18:24:34.123Z,7.80
2019-04-29T18:27:07.839Z,7.80
2019-04-29T18:29:41.509Z,7.80
2019-04-29T18:32:09.436Z,7.80
2019-04-29T18:34:39.807Z,7.80
2019-04-29T18:37:09.816Z,7.80
2019-04-29T18:39:40.089Z,7.80
2019-04-29T18:42:12.229Z,7.80
2019-04-29T18:44:56.538Z,7.70
2019-04-29T18:47:22.603Z,7.80
2019-04-29T18:49:47.326Z,7.80
2019-04-29T18:52:25.338Z,7.80
2019-04-29T18:54:49.283Z,7.70
2019-04-29T18:57:27.666Z,7.70
2019-04-29T18:59:52.409Z,7.70
2019-04-29T19:02:22.319Z,7.70
2019-04-29T19:04:58.172Z,7.70
2019-04-29T19:07:31.833Z,7.70
2019-04-29T19:10:01.415Z,7.80
2019-04-29T19:12:32.717Z,7.80
2019-04-29T19:15:10.010Z,7.80
2019-04-29T19:17:39.701Z,7.80
2019-04-29T19:20:08.615Z,7.80
2019-04-29T19:22:39.941Z,7.80
2019-04-29T19:25:11.818Z,7.80
2019-04-29T19:27:42.010Z,7.80
2019-04-29T19:30:16.231Z,7.90
2019-04-29T19:32:46.638Z,8.00
2019-04-29T19:35:16.984Z,7.90
2019-04-29T19:37:47.172Z,7.90
2019-04-29T19:40:19.673Z,8.00
2019-04-29T19:42:49.606Z,7.90
2019-04-29T19:45:19.860Z,7.90
2019-04-29T19:47:53.151Z,7.90
2019-04-29T19:50:21.532Z,7.80
2019-04-29T19:52:55.431Z,7.70
2019-04-29T19:55:25.252Z,7.70
2019-04-29T19:57:56.371Z,7.70
2019-04-29T20:00:29.473Z,7.70
2019-04-29T20:02:59.172Z,7.70
2019-04-29T20:05:42.192Z,7.70
2019-04-29T20:08:21.596Z,7.70
2019-04-29T20:10:51.042Z,7.80
2019-04-29T20:13:18.257Z,7.80
2019-04-29T20:16:12.384Z,7.90
2019-04-29T20:19:02.500Z,7.90
2019-04-29T20:21:36.199Z,7.80
2019-04-29T20:24:09.630Z,7.90
2019-04-29T20:26:38.962Z,7.80
2019-04-29T20:29:09.846Z,7.80
2019-04-29T20:31:48.653Z,7.80
2019-04-29T20:34:12.701Z,7.80
2019-04-29T20:36:43.133Z,7.80
2019-04-29T20:39:16.956Z,7.90
2019-04-29T20:41:48.734Z,7.90
2019-04-29T20:44:17.908Z,7.90
2019-04-29T20:47:13.009Z,7.90
2019-04-29T20:49:19.471Z,7.90
2019-04-29T20:51:52.977Z,7.90
2019-04-29T20:54:26.152Z,7.90
2019-04-29T20:57:02.919Z,8.00
2019-04-29T20:59:28.469Z,8.00
2019-04-29T21:02:12.039Z,8.00
2019-04-29T21:04:39.251Z,8.00
2019-04-29T21:07:07.037Z,8.00
2019-04-29T21:09:37.358Z,8.00
2019-04-29T21:12:38.225Z,8.00
2019-04-29T21:15:14.957Z,8.10
2019-04-29T21:17:43.087Z,8.10
2019-04-29T21:20:13.368Z,8.10
2019-04-29T21:22:45.454Z,8.10
2019-04-29T21:25:16.605Z,8.00
2019-04-29T21:27:48.521Z,8.00
2019-04-29T21:30:18.542Z,8.00
2019-04-29T21:32:48.503Z,8.00
2019-04-29T21:35:27.013Z,8.10
2019-04-29T21:38:23.358Z,8.10
2019-04-29T21:41:02.463Z,8.10
2019-04-29T21:43:35.442Z,8.10
2019-04-29T21:46:05.973Z,8.10
2019-04-29T21:48:37.378Z,8.10
2019-04-29T21:51:11.197Z,8.10
2019-04-29T21:53:40.668Z,8.10
2019-04-29T21:56:10.578Z,8.10
2019-04-29T21:58:40.762Z,8.10
2019-04-29T22:01:11.224Z,8.10
2019-04-29T22:03:42.786Z,8.20
2019-04-29T22:06:12.643Z,8.20
2019-04-29T22:08:42.618Z,8.20
2019-04-29T22:11:13.514Z,8.20
2019-04-29T22:13:45.285Z,8.20
2019-04-29T22:16:17.190Z,8.20
2019-04-29T22:18:52.095Z,8.20
2019-04-29T22:21:21.941Z,8.20
2019-04-29T22:23:52.372Z,8.20
2019-04-29T22:26:23.350Z,8.30
2019-04-29T22:29:01.798Z,8.30
2019-04-29T22:31:33.519Z,8.20
2019-04-29T22:33:58.437Z,8.20
2019-04-29T22:36:28.200Z,8.30
2019-04-29T22:38:58.470Z,8.30
2019-04-29T22:41:48.726Z,8.30
2019-04-29T22:44:21.888Z,8.30
2019-04-29T22:46:53.257Z,8.30
2019-04-29T22:49:27.212Z,8.30
2019-04-29T22:51:57.139Z,8.30
2019-04-29T22:54:26.694Z,8.40
2019-04-29T22:56:56.839Z,8.30
2019-04-29T22:59:27.578Z,8.40
2019-04-29T23:01:57.582Z,8.40
2019-04-29T23:04:27.668Z,8.30
2019-04-29T23:06:57.942Z,8.40
2019-04-29T23:09:28.199Z,8.30
2019-04-29T23:11:58.091Z,8.30
2019-04-29T23:14:28.400Z,8.30
2019-04-29T23:16:59.039Z,8.30
2019-04-29T23:19:29.260Z,8.40
2019-04-29T23:22:22.612Z,8.40
2019-04-29T23:24:59.441Z,8.30
2019-04-29T23:27:29.461Z,8.40
2019-04-29T23:29:59.736Z,8.40
2019-04-29T23:32:30.442Z,8.40
2019-04-29T23:35:01.715Z,8.40
2019-04-29T23:37:36.532Z,8.40
2019-04-29T23:40:10.420Z,8.40
2019-04-29T23:42:43.670Z,8.40
2019-04-29T23:45:14.556Z,8.40
2019-04-29T23:47:46.840Z,8.40
2019-04-29T23:50:18.602Z,8.40
2019-04-29T23:52:51.895Z,8.50
2019-04-29T23:55:24.973Z,8.50
2019-04-29T23:58:03.756Z,8.50
